Regional Weather

 

KCRX - Corinth, Mississippi, USA
Distance from station: SW 29mi, 47km
Updated: Mon, 27-May-2024 6:55am CDT
Clear
Clear
 Wind from calm
Wind: Calm
Temperature: 70°F , 21°C
Dew Point: 68°F , 20°C
Humidity: 94%
Barometer: 29.79 inHg , 1008.8 hPa
Clouds: Clear
Visibility: 9 miles , 14 km
2024/05/27 11:55 KCRX 271155Z AUTO 00000KT 9SM CLR 21/20 A2979 RMK AO2
KMKL - Jackson, Tennessee, USA
Distance from station: NW 46mi, 73km
Updated: Mon, 27-May-2024 6:53am CDT
Clear
Clear
 Wind from WSW
Wind: WSW 7 mph , 11 km/h
Temperature: 70°F , 21°C
Dew Point: 66°F , 19°C
Humidity: 88%
Barometer: 29.79 inHg , 1008.8 hPa
Clouds: Clear
Visibility: 10 miles , 16 km
2024/05/27 11:53 KMKL 271153Z 24006KT 10SM CLR 21/19 A2979 RMK AO2 SLP081 60047 70090 T02060189 10206 20194 53013
 
KMSL - Muscle Shoal, Alabama, USA
Distance from station: SE 49mi, 79km
Updated: Mon, 27-May-2024 6:53am CDT
Clear
Clear
 Wind from WSW
Wind: WSW 6 mph , 9 km/h
Temperature: 70°F , 21°C
Dew Point: 66°F , 19°C
Humidity: 88%
Barometer: 29.80 inHg , 1009.1 hPa
Clouds: Clear
Visibility: 9 miles , 14 km
2024/05/27 11:53 KMSL 271153Z AUTO 25005KT 9SM CLR 21/19 A2980 RMK AO2 PRESRR SLP084 60021 70051 T02060189 10256 20206 53011
KTUP - Tupelo, Mississippi, USA
Distance from station: SSW 72mi, 117km
Updated: Mon, 27-May-2024 6:53am CDT
Mostly cloudy
Mostly cloudy
 Wind from calm
Wind: Calm
Temperature: 72°F , 22°C
Dew Point: 68°F , 20°C
Humidity: 88%
Barometer: 29.82 inHg , 1009.8 hPa
Clouds: Mostly cloudy
Visibility: 10 miles , 16 km
Cloud details: Few Clouds 2700 ft
Partly cloudy 3700 ft
Mostly cloudy 10000 ft
2024/05/27 11:53 KTUP 271153Z 00000KT 10SM FEW027 SCT037 BKN100 22/20 A2982 RMK AO2 SLP092 60007 70007 T02220200 10278 20206 53016 $
 
KHSV - Huntsville, Alabama, USA
Distance from station: ESE 92mi, 148km
Updated: Mon, 27-May-2024 6:53am CDT
Mostly cloudy
Mostly cloudy
 Wind from SE
Wind: SE 7 mph , 11 km/h
Temperature: 66°F , 19°C
Dew Point: 64°F , 18°C
Humidity: 94%
Barometer: 29.78 inHg , 1008.5 hPa
Clouds: Mostly cloudy
Visibility: 10 miles , 16 km
Cloud details: Few Clouds 800 ft
Few Clouds 11000 ft
Mostly cloudy 18000 ft
2024/05/27 11:53 KHSV 271153Z 13006KT 10SM FEW008 FEW110 BKN180 19/18 A2978 RMK AO2 RAE05 SLP077 P0001 60257 70257 T01940183 10267 20189 58009 $
KBNA - Nashville, TN, USA
Distance from station: NE 97mi, 157km
Updated: Mon, 27-May-2024 6:53am CDT
Mostly cloudy
Mostly cloudy
 Wind from SW
Wind: SW 5 mph , 7 km/h
Temperature: 66°F , 19°C
Dew Point: 63°F , 17°C
Humidity: 88%
Barometer: 29.78 inHg , 1008.5 hPa
Clouds: Mostly cloudy
Visibility: 10 miles , 16 km
Cloud details: Few Clouds 1900 ft
Partly cloudy 3500 ft
Partly cloudy 18000 ft
Mostly cloudy 25000 ft
2024/05/27 11:53 KBNA 271153Z 22004KT 10SM FEW019 SCT035 SCT180 BKN250 19/17 A2978 RMK AO2 SLP077 60065 70135 T01890167 10189 20178 51044 $
 
KMEM - Memphis, Tennessee, USA
Distance from station: W 99mi, 159km
Updated: Mon, 27-May-2024 6:54am CDT
Clear
Clear
 Wind from WNW
Wind: WNW 3 mph , 6 km/h
Temperature: 72°F , 22°C
Dew Point: 68°F , 20°C
Humidity: 88%
Barometer: 29.80 inHg , 1009.1 hPa
Clouds: Clear
Visibility: 10 miles , 16 km
2024/05/27 11:54 KMEM 271154Z 29003KT 10SM CLR 22/20 A2980 RMK AO2 SLP088 60011 70036 T02170200 10217 20200 53019
KCKV - Clarksville, TN, USA
Distance from station: NNE 99mi, 159km
Updated: Mon, 27-May-2024 6:52am CDT
Clear
Clear
 Wind from WSW
Wind: WSW 6 mph , 9 km/h
Temperature: 66°F , 19°C
Dew Point: 63°F , 17°C
Humidity: 88%
Barometer: 29.74 inHg , 1007.1 hPa
Clouds: Clear
Visibility: 10 miles , 16 km
2024/05/27 11:52 KCKV 271152Z AUTO 24005KT 10SM CLR 19/17 A2974 RMK AO2 SLP066 60007 70432 T01890172 10189 20178 53019 $
 
KCHA - Chattanooga, TN, USA
Distance from station: E 165mi, 265km
Updated: Mon, 27-May-2024 6:53am CDT
Overcast
Overcast
 Wind from varies
Wind: varies 3 mph , 6 km/h
Temperature: 64°F , 18°C
Dew Point: 64°F , 18°C
Humidity: 100%
Barometer: 29.85 inHg , 1010.8 hPa
Clouds: Overcast
Visibility: 9 miles , 14 km
Cloud details: Partly cloudy 900 ft
Mostly cloudy 12000 ft
Overcast 15000 ft
2024/05/27 11:53 KCHA 271153Z VRB03KT 9SM SCT009 BKN120 OVC150 18/18 A2985 RMK AO2 RAE22 TSE15 SLP099 TS MOVD E CB DSNT E-SE P0000 60137 70137 T01830178 10261 20183 58012
KTYS - Knoxville, TN, USA
Distance from station: E 234mi, 377km
Updated: Mon, 27-May-2024 6:53am CDT
Rain, Mostly cloudy
Rain, Mostly cloudy
 Wind from ESE
Wind: ESE 9 mph , 15 km/h
Temperature: 63°F , 17°C
Dew Point: 61°F , 16°C
Humidity: 94%
Barometer: 29.81 inHg , 1009.5 hPa
Summary: Rain
Clouds: Mostly cloudy
Visibility: 7 miles , 11 km
Cloud details: Mostly cloudy 11000 ft
2024/05/27 11:53 KTYS 271153Z 12008KT 7SM RA BKN110 17/16 A2981 RMK AO2 TSE11B14E31 PRESFR SLP087 P0017 60129 70129 T01720156 10239 20172 58019

Refresh Page for latest data.